createdAt,value
2019-01-05T00:02:24.097Z,-2.46
2019-01-05T00:08:05.027Z,-2.37
2019-01-05T00:13:27.785Z,-2.46
2019-01-05T00:19:03.605Z,-2.83
2019-01-05T00:24:45.467Z,-2.76
2019-01-05T00:30:07.668Z,-2.60
2019-01-05T00:35:54.980Z,-3.14
2019-01-05T00:41:21.254Z,-3.39
2019-01-05T00:46:46.612Z,-3.49
2019-01-05T00:52:17.977Z,-3.84
2019-01-05T00:57:48.320Z,-3.98
2019-01-05T01:03:10.660Z,-4.07
2019-01-05T01:08:26.564Z,-4.11
2019-01-05T01:14:08.954Z,-4.31
2019-01-05T01:19:38.435Z,-4.41
2019-01-05T01:25:17.802Z,-4.44
2019-01-05T01:30:55.410Z,-4.46
2019-01-05T01:36:18.784Z,-4.51
2019-01-05T01:47:19.719Z,-4.57
2019-01-05T01:52:49.189Z,-4.52
2019-01-05T01:58:14.094Z,-4.62
2019-01-05T02:03:38.722Z,-4.73
2019-01-05T02:09:04.311Z,-4.64
2019-01-05T02:14:31.878Z,-3.44
2019-01-05T02:20:08.498Z,-3.12
2019-01-05T02:26:16.809Z,-3.11
2019-01-05T02:31:52.345Z,-3.64
2019-01-05T02:38:03.531Z,-4.15
2019-01-05T02:43:55.777Z,-3.97
2019-01-05T02:50:21.019Z,-3.51
2019-01-05T02:56:46.070Z,-3.20
2019-01-05T03:02:40.238Z,-3.19
2019-01-05T03:08:57.193Z,-3.26
2019-01-05T03:14:59.866Z,-3.10
2019-01-05T03:21:21.246Z,-2.93
2019-01-05T03:27:34.492Z,-3.05
2019-01-05T03:33:38.953Z,-3.44
2019-01-05T03:39:25.706Z,-3.64
2019-01-05T03:45:43.782Z,-3.97
2019-01-05T03:51:37.923Z,-3.94
2019-01-05T03:57:37.995Z,-4.27
2019-01-05T04:03:40.605Z,-4.43
2019-01-05T04:09:37.283Z,-4.50
2019-01-05T04:15:49.112Z,-4.69
2019-01-05T04:21:51.280Z,-4.42
2019-01-05T04:27:44.211Z,-3.53
2019-01-05T04:34:06.823Z,-3.57
2019-01-05T04:40:15.392Z,-3.46
2019-01-05T04:46:30.246Z,-3.44
2019-01-05T04:52:50.083Z,-3.41
2019-01-05T04:59:08.128Z,-3.41
2019-01-05T05:05:27.534Z,-3.52
2019-01-05T05:11:30.824Z,-3.56
2019-01-05T05:18:02.775Z,-3.57
2019-01-05T05:24:07.382Z,-3.61
2019-01-05T05:30:22.853Z,-3.60
2019-01-05T05:36:54.490Z,-3.51
2019-01-05T05:43:13.096Z,-3.52
2019-01-05T05:49:38.173Z,-3.51
2019-01-05T05:55:57.568Z,-3.45
2019-01-05T06:02:11.801Z,-3.38
2019-01-05T06:08:20.936Z,-3.28
2019-01-05T06:14:40.293Z,-3.35
2019-01-05T06:20:37.444Z,-3.36
2019-01-05T06:26:44.257Z,-3.37
2019-01-05T06:33:04.167Z,-3.21
2019-01-05T06:39:15.351Z,-3.13
2019-01-05T06:45:28.381Z,-3.05
2019-01-05T06:51:32.491Z,-2.98
2019-01-05T06:57:47.318Z,-2.90
2019-01-05T07:04:06.045Z,-2.89
2019-01-05T07:10:48.848Z,-2.79
2019-01-05T07:16:55.996Z,-2.72
2019-01-05T07:23:21.580Z,-2.88
2019-01-05T07:29:42.081Z,-2.91
2019-01-05T07:35:35.885Z,-2.93
2019-01-05T07:41:26.245Z,-3.02
2019-01-05T07:47:55.252Z,-2.91
2019-01-05T07:54:04.563Z,-2.65
2019-01-05T08:00:16.925Z,-2.44
2019-01-05T08:06:28.984Z,-2.50
2019-01-05T08:12:47.406Z,-2.40
2019-01-05T08:19:04.832Z,-2.32
2019-01-05T08:25:13.212Z,-2.60
2019-01-05T08:31:08.206Z,-2.59
2019-01-05T08:37:22.144Z,-2.68
2019-01-05T08:43:31.480Z,-2.44
2019-01-05T08:49:47.726Z,-2.23
2019-01-05T08:56:22.082Z,-2.04
2019-01-05T09:02:35.220Z,-1.94
2019-01-05T09:09:03.626Z,-2.09
2019-01-05T09:15:23.227Z,-1.96
2019-01-05T09:21:34.852Z,-2.03
2019-01-05T09:27:49.856Z,-1.99
2019-01-05T09:33:58.413Z,-1.92
2019-01-05T09:40:07.844Z,-1.79
2019-01-05T09:46:19.485Z,-1.87
2019-01-05T09:52:27.782Z,-1.74
2019-01-05T09:58:38.116Z,-1.68
2019-01-05T10:05:04.985Z,-1.79
2019-01-05T10:11:02.338Z,-1.91
2019-01-05T10:17:10.237Z,-1.76
2019-01-05T10:23:51.528Z,-1.53
2019-01-05T10:30:04.680Z,-1.49
2019-01-05T10:36:02.865Z,-1.36
2019-01-05T10:42:14.500Z,-1.54
2019-01-05T10:48:33.924Z,-1.37
2019-01-05T10:54:38.008Z,-1.36
2019-01-05T11:00:49.855Z,-1.58
2019-01-05T11:06:40.923Z,-1.25
2019-01-05T11:13:05.523Z,-1.09
2019-01-05T11:19:24.965Z,-1.15
2019-01-05T11:25:42.911Z,-1.33
2019-01-05T11:31:37.781Z,-1.14
2019-01-05T11:37:30.026Z,-1.21
2019-01-05T11:43:50.091Z,-1.19
2019-01-05T11:49:56.398Z,-1.20
2019-01-05T11:55:55.111Z,-1.35
2019-01-05T12:02:06.454Z,-1.46
2019-01-05T12:08:15.042Z,-1.31
2019-01-05T12:14:27.956Z,-1.42
2019-01-05T12:20:44.609Z,-1.35
2019-01-05T12:26:46.117Z,-1.40
2019-01-05T12:32:53.221Z,-1.41
2019-01-05T12:39:05.676Z,-1.43
2019-01-05T12:44:54.577Z,-1.36
2019-01-05T12:51:15.619Z,-1.47
2019-01-05T12:57:39.157Z,-1.48
2019-01-05T13:03:44.024Z,-1.48
2019-01-05T13:10:03.110Z,-1.56
2019-01-05T13:16:06.822Z,-1.45
2019-01-05T13:22:16.969Z,-1.34
2019-01-05T13:28:33.737Z,-1.47
2019-01-05T13:35:09.336Z,-1.37
2019-01-05T13:41:12.374Z,-1.40
2019-01-05T13:47:18.716Z,-1.33
2019-01-05T13:53:14.855Z,-1.35
2019-01-05T13:58:41.571Z,-1.42
2019-01-05T14:04:17.445Z,-1.50
2019-01-05T14:09:46.566Z,-1.50
2019-01-05T14:15:13.481Z,-1.56
2019-01-05T14:20:38.300Z,-1.50
2019-01-05T14:26:00.636Z,-1.71
2019-01-05T14:31:23.423Z,-1.75
2019-01-05T14:36:52.765Z,-1.81
2019-01-05T14:42:22.590Z,-1.81
2019-01-05T14:47:46.072Z,-1.93
2019-01-05T14:53:09.797Z,-2.00
2019-01-05T14:58:32.003Z,-2.05
2019-01-05T15:03:56.796Z,-2.09
2019-01-05T15:09:29.088Z,-2.21
2019-01-05T15:15:02.369Z,-2.32
2019-01-05T15:20:29.018Z,-2.21
2019-01-05T15:25:58.656Z,-2.23
2019-01-05T15:31:31.749Z,-2.36
2019-01-05T15:36:54.101Z,-2.50
2019-01-05T15:42:24.412Z,-2.58
2019-01-05T15:47:39.978Z,-2.70
2019-01-05T15:53:15.473Z,-2.72
2019-01-05T15:58:47.859Z,-2.71
2019-01-05T16:04:27.358Z,-2.83
2019-01-05T16:09:49.496Z,-2.81
2019-01-05T16:15:16.690Z,-2.76
2019-01-05T16:20:41.173Z,-2.83
2019-01-05T16:26:07.608Z,-2.89
2019-01-05T16:31:43.604Z,-2.94
2019-01-05T16:37:10.686Z,-2.95
2019-01-05T16:42:33.785Z,-2.98
2019-01-05T16:48:00.114Z,-3.08
2019-01-05T16:53:30.155Z,-3.07
2019-01-05T16:59:05.560Z,-3.17
2019-01-05T17:04:28.438Z,-3.19
2019-01-05T17:09:50.596Z,-3.09
2019-01-05T17:15:29.255Z,-3.11
2019-01-05T17:20:52.955Z,-3.09
2019-01-05T17:26:19.712Z,-3.12
2019-01-05T17:31:39.294Z,-3.08
2019-01-05T17:37:12.846Z,-3.16
2019-01-05T17:43:21.301Z,-3.20
2019-01-05T18:02:29.052Z,-3.79
2019-01-05T18:07:52.372Z,-3.85
2019-01-05T18:13:16.071Z,-4.03
2019-01-05T18:18:48.647Z,-4.09
2019-01-05T18:24:10.966Z,-4.14
2019-01-05T18:29:42.348Z,-4.20
2019-01-05T18:35:05.971Z,-4.35
2019-01-05T18:40:29.520Z,-4.56
2019-01-05T18:45:53.097Z,-4.60
2019-01-05T18:51:11.674Z,-4.70
2019-01-05T18:56:34.186Z,-4.85
2019-01-05T19:02:03.669Z,-4.99
2019-01-05T19:07:42.351Z,-5.21
2019-01-05T19:13:09.554Z,-5.16
2019-01-05T19:18:39.110Z,-5.26
2019-01-05T19:24:17.863Z,-5.25
2019-01-05T19:29:39.812Z,-5.35
2019-01-05T19:35:03.530Z,-5.52
2019-01-05T19:40:25.326Z,-5.41
2019-01-05T19:45:48.056Z,-5.37
2019-01-05T19:51:11.638Z,-5.28
2019-01-05T19:56:47.375Z,-5.32
2019-01-05T20:02:26.479Z,-5.35
2019-01-05T20:08:08.157Z,-5.50
2019-01-05T20:13:40.643Z,-5.49
2019-01-05T20:19:07.157Z,-5.46
2019-01-05T20:24:33.087Z,-5.67
2019-01-05T20:29:54.278Z,-5.74
2019-01-05T20:35:17.844Z,-5.83
2019-01-05T20:40:50.691Z,-5.82
2019-01-05T20:46:14.723Z,-5.78
2019-01-05T20:51:39.357Z,-5.71
2019-01-05T20:57:15.207Z,-5.84
2019-01-05T21:02:38.171Z,-5.82
2019-01-05T21:08:07.981Z,-6.01
2019-01-05T21:13:33.250Z,-6.27
2019-01-05T21:18:59.490Z,-6.36
2019-01-05T21:24:32.775Z,-6.43
2019-01-05T21:30:05.925Z,-6.31
2019-01-05T21:35:35.058Z,-6.21
2019-01-05T21:41:01.303Z,-6.12
2019-01-05T21:46:24.905Z,-6.14
2019-01-05T21:51:48.441Z,-6.20
2019-01-05T21:57:18.877Z,-6.44
2019-01-05T22:02:45.037Z,-6.46
2019-01-05T22:08:07.093Z,-6.38
2019-01-05T22:13:45.921Z,-6.29
2019-01-05T22:19:18.746Z,-6.32
2019-01-05T22:24:45.104Z,-6.55
2019-01-05T22:30:07.184Z,-6.43
2019-01-05T22:35:33.547Z,-6.25
2019-01-05T22:41:02.495Z,-6.13
2019-01-05T22:46:25.110Z,-6.08
2019-01-05T22:51:48.700Z,-6.08
2019-01-05T22:57:10.695Z,-5.99
2019-01-05T23:02:43.092Z,-6.10
2019-01-05T23:08:18.682Z,-6.08
2019-01-05T23:13:44.816Z,-6.08
2019-01-05T23:19:14.524Z,-6.14
2019-01-05T23:24:40.854Z,-6.34
2019-01-05T23:30:13.131Z,-6.44
2019-01-05T23:35:44.570Z,-6.51
2019-01-05T23:41:06.916Z,-6.77
2019-01-05T23:46:30.865Z,-6.92
2019-01-05T23:51:57.458Z,-6.87
2019-01-05T23:57:23.871Z,-6.74
